Time,TemperatureF,DewpointF,PressureIn,WindDirection,WindDirectionDegrees,WindSpeedMPH,WindSpeedGustMPH,Humidity,HourlyPrecipIn,Conditions,Clouds,dailyrainin,SoftwareType,DateUTC
2013-06-05 08:15:00,68.0,52.6,29.34,NE,45,0.0,0.0,58,0.00,,,0.00,Weather View 32 v70,2013-06-05 12:15:00,
2013-06-05 08:20:00,68.0,52.6,29.34,ENE,67,0.0,9.0,58,0.00,,,0.00,Weather View 32 v70,2013-06-05 12:20:00,
2013-06-05 08:25:00,68.0,53.6,29.34,NNW,337,0.0,9.0,60,0.00,,,0.00,Weather View 32 v70,2013-06-05 12:25:00,
2013-06-05 08:30:00,69.0,53.1,29.34,NE,45,6.0,9.0,57,0.00,,,0.00,Weather View 32 v70,2013-06-05 12:30:00,
2013-06-05 08:35:00,69.0,52.6,29.34,NE,45,3.0,9.0,56,0.00,,,0.00,Weather View 32 v70,2013-06-05 12:35:00,
2013-06-05 08:40:00,69.0,53.1,29.34,NE,45,5.0,9.0,57,0.00,,,0.00,Weather View 32 v70,2013-06-05 12:40:00,
2013-06-05 08:45:00,69.0,52.6,29.34,NE,45,3.0,9.0,56,0.00,,,0.00,Weather View 32 v70,2013-06-05 12:45:00,
2013-06-05 08:50:00,69.0,53.1,29.34,ENE,67,0.0,9.0,57,0.00,,,0.00,Weather View 32 v70,2013-06-05 12:50:00,
2013-06-05 08:55:00,70.0,54.0,29.34,NE,45,4.0,9.0,57,0.00,,,0.00,Weather View 32 v70,2013-06-05 12:55:00,
2013-06-05 09:00:00,70.0,54.5,29.34,North,360,3.0,9.0,58,0.00,,,0.00,Weather View 32 v70,2013-06-05 13:00:00,
2013-06-05 09:05:00,70.0,53.5,29.34,NE,45,6.0,9.0,56,0.00,,,0.00,Weather View 32 v70,2013-06-05 13:05:00,
2013-06-05 09:10:00,69.0,53.6,29.34,ENE,67,4.0,10.0,58,0.00,,,0.00,Weather View 32 v70,2013-06-05 13:10:00,
2013-06-05 09:15:00,69.0,54.0,29.34,North,360,4.0,10.0,59,0.00,,,0.00,Weather View 32 v70,2013-06-05 13:15:00,
2013-06-05 09:20:00,69.0,53.6,29.34,NNE,22,0.0,10.0,58,0.00,,,0.00,Weather View 32 v70,2013-06-05 13:20:00,
2013-06-05 09:25:00,70.0,55.4,29.34,ESE,112,0.0,10.0,60,0.00,,,0.00,Weather View 32 v70,2013-06-05 13:25:00,
2013-06-05 09:30:00,70.0,54.5,29.34,ESE,112,0.0,10.0,58,0.00,,,0.00,Weather View 32 v70,2013-06-05 13:30:00,
2013-06-05 09:35:00,71.0,55.4,29.34,NE,45,0.0,10.0,58,0.00,,,0.00,Weather View 32 v70,2013-06-05 13:35:00,
2013-06-05 09:40:00,71.0,54.5,29.35,ENE,67,0.0,10.0,56,0.00,,,0.00,Weather View 32 v70,2013-06-05 13:40:00,
2013-06-05 09:45:00,70.0,53.0,29.35,NNE,22,4.0,10.0,55,0.00,,,0.00,Weather View 32 v70,2013-06-05 13:45:00,
2013-06-05 09:50:00,70.0,53.0,29.34,ENE,67,7.0,10.0,55,0.00,,,0.00,Weather View 32 v70,2013-06-05 13:50:00,
2013-06-05 09:55:00,70.0,54.5,29.34,NNE,22,2.0,10.0,58,0.00,,,0.00,Weather View 32 v70,2013-06-05 13:55:00,
2013-06-05 10:00:00,70.0,53.0,29.34,NE,45,3.0,10.0,55,0.00,,,0.00,Weather View 32 v70,2013-06-05 14:00:00,
2013-06-05 10:05:00,70.0,53.0,29.34,NNE,22,0.0,10.0,55,0.00,,,0.00,Weather View 32 v70,2013-06-05 14:05:00,
2013-06-05 10:10:00,70.0,53.0,29.34,NE,45,0.0,9.0,55,0.00,,,0.00,Weather View 32 v70,2013-06-05 14:10:00,
2013-06-05 10:15:00,70.0,53.0,29.34,NNE,22,7.0,9.0,55,0.00,,,0.00,Weather View 32 v70,2013-06-05 14:15:00,
2013-06-05 10:20:00,70.0,54.5,29.34,NNE,22,0.0,9.0,58,0.00,,,0.00,Weather View 32 v70,2013-06-05 14:20:00,
2013-06-05 10:25:00,71.0,55.0,29.34,North,360,0.0,9.0,57,0.00,,,0.00,Weather View 32 v70,2013-06-05 14:25:00,
2013-06-05 10:30:00,71.0,54.0,29.33,East,90,1.0,9.0,55,0.00,,,0.00,Weather View 32 v70,2013-06-05 14:30:00,
2013-06-05 10:35:00,71.0,55.0,29.33,NE,45,0.0,9.0,57,0.00,,,0.00,Weather View 32 v70,2013-06-05 14:35:00,
2013-06-05 10:40:00,71.0,54.0,29.33,NNW,337,0.0,9.0,55,0.00,,,0.00,Weather View 32 v70,2013-06-05 14:40:00,
2013-06-05 10:45:00,71.0,53.5,29.33,SSW,202,0.0,9.0,54,0.00,,,0.00,Weather View 32 v70,2013-06-05 14:45:00,
2013-06-05 10:50:00,71.0,54.0,29.33,NE,45,2.0,9.0,55,0.00,,,0.00,Weather View 32 v70,2013-06-05 14:50:00,
2013-06-05 10:55:00,71.0,53.0,29.33,ENE,67,0.0,9.0,53,0.00,,,0.00,Weather View 32 v70,2013-06-05 14:55:00,
2013-06-05 11:00:00,72.0,54.4,29.33,SE,135,0.0,9.0,54,0.00,,,0.00,Weather View 32 v70,2013-06-05 15:00:00,
2013-06-05 11:05:00,73.0,54.3,29.33,NNE,22,2.0,9.0,52,0.00,,,0.00,Weather View 32 v70,2013-06-05 15:05:00,
2013-06-05 11:10:00,73.0,53.2,29.33,East,90,0.0,9.0,50,0.00,,,0.00,Weather View 32 v70,2013-06-05 15:10:00,
2013-06-05 11:15:00,74.0,52.4,29.33,NE,45,3.0,9.0,47,0.00,,,0.00,Weather View 32 v70,2013-06-05 15:15:00,
2013-06-05 11:20:00,74.0,53.6,29.32,North,360,0.0,9.0,49,0.00,,,0.00,Weather View 32 v70,2013-06-05 15:20:00,
2013-06-05 11:25:00,74.0,54.1,29.33,NNW,337,0.0,10.0,50,0.00,,,0.00,Weather View 32 v70,2013-06-05 15:25:00,
2013-06-05 11:30:00,74.0,54.1,29.32,ENE,67,0.0,10.0,50,0.00,,,0.00,Weather View 32 v70,2013-06-05 15:30:00,
2013-06-05 11:35:00,75.0,53.9,29.33,SE,135,3.0,10.0,48,0.00,,,0.00,Weather View 32 v70,2013-06-05 15:35:00,
2013-06-05 11:40:00,75.0,52.8,29.33,North,360,6.0,10.0,46,0.00,,,0.00,Weather View 32 v70,2013-06-05 15:40:00,
2013-06-05 11:45:00,75.0,53.3,29.33,SE,135,0.0,10.0,47,0.00,,,0.00,Weather View 32 v70,2013-06-05 15:45:00,
2013-06-05 11:50:00,75.0,52.2,29.32,NE,45,0.0,10.0,45,0.00,,,0.00,Weather View 32 v70,2013-06-05 15:50:00,
2013-06-05 11:55:00,76.0,53.1,29.33,South,180,0.0,10.0,45,0.00,,,0.00,Weather View 32 v70,2013-06-05 15:55:00,
2013-06-05 12:00:00,75.0,51.5,29.32,NNE,22,0.0,10.0,44,0.00,,,0.00,Weather View 32 v70,2013-06-05 16:00:00,
2013-06-05 12:05:00,76.0,53.1,29.32,East,90,0.0,10.0,45,0.00,,,0.00,Weather View 32 v70,2013-06-05 16:05:00,
2013-06-05 12:10:00,77.0,54.0,29.36,ENE,67,3.0,10.0,45,0.00,,,0.00,Weather View 32 v70,2013-06-05 16:10:00,
2013-06-05 12:15:00,77.0,54.0,29.33,NNE,22,6.0,10.0,45,0.00,,,0.00,Weather View 32 v70,2013-06-05 16:15:00,
2013-06-05 12:20:00,77.0,52.7,29.32,NE,45,3.0,11.0,43,0.00,,,0.00,Weather View 32 v70,2013-06-05 16:20:00,
2013-06-05 12:25:00,77.0,52.7,29.32,SSW,202,0.0,11.0,43,0.00,,,0.00,Weather View 32 v70,2013-06-05 16:25:00,
2013-06-05 12:30:00,77.0,48.7,29.32,SSE,157,3.0,11.0,37,0.00,,,0.00,Weather View 32 v70,2013-06-05 16:30:00,
2013-06-05 12:35:00,77.0,50.1,29.32,SSW,202,4.0,11.0,39,0.00,,,0.00,Weather View 32 v70,2013-06-05 16:35:00,
2013-06-05 12:40:00,77.0,48.7,29.32,SSE,157,4.0,11.0,37,0.00,,,0.00,Weather View 32 v70,2013-06-05 16:40:00,
2013-06-05 12:45:00,77.0,49.4,29.32,South,180,0.0,11.0,38,0.00,,,0.00,Weather View 32 v70,2013-06-05 16:45:00,
2013-06-05 12:50:00,77.0,47.9,29.32,SE,135,9.0,11.0,36,0.00,,,0.00,Weather View 32 v70,2013-06-05 16:50:00,
2013-06-05 12:55:00,77.0,48.7,29.32,SSW,202,5.0,11.0,37,0.00,,,0.00,Weather View 32 v70,2013-06-05 16:55:00,
2013-06-05 13:00:00,77.0,49.4,29.32,ENE,67,1.0,11.0,38,0.00,,,0.00,Weather View 32 v70,2013-06-05 17:00:00,
2013-06-05 13:05:00,78.0,48.0,29.35,SSE,157,0.0,11.0,35,0.00,,,0.00,Weather View 32 v70,2013-06-05 17:05:00,
2013-06-05 13:10:00,78.0,47.3,29.32,East,90,3.0,11.0,34,0.00,,,0.00,Weather View 32 v70,2013-06-05 17:10:00,
2013-06-05 13:16:00,78.0,47.3,29.31,ESE,112,3.0,11.0,34,0.00,,,0.00,Weather View 32 v70,2013-06-05 17:16:00,
2013-06-05 13:21:00,78.0,47.3,29.31,South,180,0.0,11.0,34,0.00,,,0.00,Weather View 32 v70,2013-06-05 17:21:00,
2013-06-05 13:26:00,79.0,50.4,29.31,SW,225,5.0,11.0,37,0.00,,,0.00,Weather View 32 v70,2013-06-05 17:26:00,
2013-06-05 13:31:00,78.0,47.3,29.31,SE,135,6.0,11.0,34,0.00,,,0.00,Weather View 32 v70,2013-06-05 17:31:00,
2013-06-05 13:36:00,78.0,47.3,29.31,SE,135,0.0,10.0,34,0.00,,,0.00,Weather View 32 v70,2013-06-05 17:36:00,
2013-06-05 13:41:00,78.0,47.3,29.31,SW,225,2.0,10.0,34,0.00,,,0.00,Weather View 32 v70,2013-06-05 17:41:00,
2013-06-05 13:46:00,78.0,47.3,29.31,NE,45,1.0,10.0,34,0.00,,,0.00,Weather View 32 v70,2013-06-05 17:46:00,
2013-06-05 13:51:00,79.0,48.1,29.31,SSE,157,0.0,10.0,34,0.00,,,0.00,Weather View 32 v70,2013-06-05 17:51:00,
2013-06-05 13:56:00,79.0,50.4,29.31,NNW,337,0.0,10.0,37,0.00,,,0.00,Weather View 32 v70,2013-06-05 17:56:00,
2013-06-05 14:01:00,80.0,51.3,29.31,SSE,157,2.0,10.0,37,0.00,,,0.00,Weather View 32 v70,2013-06-05 18:01:00,
2013-06-05 14:06:00,80.0,49.0,29.31,ESE,112,0.0,12.0,34,0.00,,,0.00,Weather View 32 v70,2013-06-05 18:06:00,
2013-06-05 14:11:00,80.0,48.2,29.31,SSW,202,0.0,12.0,33,0.00,,,0.00,Weather View 32 v70,2013-06-05 18:11:00,
2013-06-05 14:16:00,80.0,47.4,29.31,SE,135,0.0,12.0,32,0.00,,,0.00,Weather View 32 v70,2013-06-05 18:16:00,
2013-06-05 14:21:00,81.0,52.2,29.31,SSW,202,0.0,12.0,37,0.00,,,0.00,Weather View 32 v70,2013-06-05 18:21:00,
2013-06-05 14:26:00,82.0,50.0,29.31,SW,225,0.0,12.0,33,0.00,,,0.00,Weather View 32 v70,2013-06-05 18:26:00,
2013-06-05 14:31:00,81.0,47.4,29.31,SW,225,2.0,12.0,31,0.00,,,0.00,Weather View 32 v70,2013-06-05 18:31:00,
2013-06-05 14:36:00,81.0,52.9,29.30,SSW,202,4.0,12.0,38,0.00,,,0.00,Weather View 32 v70,2013-06-05 18:36:00,
2013-06-05 14:41:00,82.0,51.6,29.30,SSW,202,0.0,12.0,35,0.00,,,0.00,Weather View 32 v70,2013-06-05 18:41:00,
2013-06-05 14:46:00,83.0,49.2,29.30,South,180,0.0,12.0,31,0.00,,,0.00,Weather View 32 v70,2013-06-05 18:46:00,
2013-06-05 14:51:00,82.0,48.3,29.30,SW,225,0.0,12.0,31,0.00,,,0.00,Weather View 32 v70,2013-06-05 18:51:00,
2013-06-05 14:56:00,82.0,49.1,29.29,South,180,0.0,12.0,32,0.00,,,0.00,Weather View 32 v70,2013-06-05 18:56:00,
2013-06-05 15:01:00,83.0,51.6,29.34,NE,45,0.0,12.0,34,0.00,,,0.00,Weather View 32 v70,2013-06-05 19:01:00,
2013-06-05 15:06:00,82.0,48.3,29.30,ESE,112,0.0,9.0,31,0.00,,,0.00,Weather View 32 v70,2013-06-05 19:06:00,
2013-06-05 15:11:00,83.0,50.8,29.30,SE,135,0.0,9.0,33,0.00,,,0.00,Weather View 32 v70,2013-06-05 19:11:00,
2013-06-05 15:16:00,82.0,48.3,29.30,SE,135,0.0,9.0,31,0.00,,,0.00,Weather View 32 v70,2013-06-05 19:16:00,
2013-06-05 15:21:00,82.0,50.8,29.30,SSW,202,0.0,9.0,34,0.00,,,0.00,Weather View 32 v70,2013-06-05 19:21:00,
2013-06-05 15:26:00,83.0,50.8,29.29,NE,45,0.0,9.0,33,0.00,,,0.00,Weather View 32 v70,2013-06-05 19:26:00,
2013-06-05 15:31:00,83.0,50.8,29.30,SE,135,0.0,11.0,33,0.00,,,0.00,Weather View 32 v70,2013-06-05 19:31:00,
2013-06-05 15:36:00,84.0,50.9,29.30,SW,225,7.0,11.0,32,0.00,,,0.00,Weather View 32 v70,2013-06-05 19:36:00,
2013-06-05 15:42:00,82.0,51.6,29.30,ESE,112,1.0,11.0,35,0.00,,,0.00,Weather View 32 v70,2013-06-05 19:42:00,
2013-06-05 15:47:00,83.0,53.2,29.29,NE,45,0.0,11.0,36,0.00,,,0.00,Weather View 32 v70,2013-06-05 19:47:00,
2013-06-05 15:52:00,83.0,50.8,29.29,SE,135,0.0,11.0,33,0.00,,,0.00,Weather View 32 v70,2013-06-05 19:52:00,
2013-06-05 15:57:00,81.0,51.4,29.30,SE,135,1.0,11.0,36,0.00,,,0.00,Weather View 32 v70,2013-06-05 19:57:00,
2013-06-05 16:02:00,80.0,52.0,29.29,North,360,0.0,11.0,38,0.00,,,0.00,Weather View 32 v70,2013-06-05 20:02:00,
2013-06-05 16:07:00,80.0,54.1,29.29,North,360,0.0,11.0,41,0.00,,,0.00,Weather View 32 v70,2013-06-05 20:07:00,
2013-06-05 16:12:00,80.0,52.0,29.29,ENE,67,1.0,11.0,38,0.00,,,0.00,Weather View 32 v70,2013-06-05 20:12:00,
2013-06-05 16:17:00,80.0,53.4,29.29,ESE,112,3.0,11.0,40,0.00,,,0.00,Weather View 32 v70,2013-06-05 20:17:00,
2013-06-05 16:22:00,79.0,51.8,29.29,SE,135,3.0,11.0,39,0.00,,,0.00,Weather View 32 v70,2013-06-05 20:22:00,
2013-06-05 16:27:00,79.0,53.2,29.32,East,90,3.0,11.0,41,0.00,,,0.00,Weather View 32 v70,2013-06-05 20:27:00,
2013-06-05 16:32:00,79.0,53.2,29.28,ESE,112,0.0,9.0,41,0.00,,,0.00,Weather View 32 v70,2013-06-05 20:32:00,
2013-06-05 16:37:00,80.0,54.8,29.28,ENE,67,1.0,9.0,42,0.00,,,0.00,Weather View 32 v70,2013-06-05 20:37:00,
2013-06-05 16:42:00,79.0,54.5,29.29,East,90,2.0,12.0,43,0.00,,,0.00,Weather View 32 v70,2013-06-05 20:42:00,
2013-06-05 16:47:00,79.0,53.2,29.29,NE,45,0.0,12.0,41,0.00,,,0.00,Weather View 32 v70,2013-06-05 20:47:00,
2013-06-05 16:52:00,79.0,54.5,29.29,NNE,22,5.0,12.0,43,0.00,,,0.00,Weather View 32 v70,2013-06-05 20:52:00,
2013-06-05 16:57:00,79.0,55.2,29.28,East,90,1.0,12.0,44,0.00,,,0.00,Weather View 32 v70,2013-06-05 20:57:00,
2013-06-05 17:02:00,78.0,53.0,29.28,ENE,67,3.0,12.0,42,0.00,,,0.00,Weather View 32 v70,2013-06-05 21:02:00,
2013-06-05 17:07:00,78.0,54.9,29.28,SE,135,2.0,12.0,45,0.00,,,0.00,Weather View 32 v70,2013-06-05 21:07:00,
2013-06-05 17:12:00,78.0,54.2,29.28,ESE,112,1.0,12.0,44,0.00,,,0.00,Weather View 32 v70,2013-06-05 21:12:00,
2013-06-05 17:17:00,78.0,54.2,29.28,ESE,112,0.0,12.0,44,0.00,,,0.00,Weather View 32 v70,2013-06-05 21:17:00,
2013-06-05 17:22:00,77.0,52.7,29.28,SSW,202,0.0,12.0,43,0.00,,,0.00,Weather View 32 v70,2013-06-05 21:22:00,
2013-06-05 17:27:00,77.0,53.3,29.28,South,180,0.0,12.0,44,0.00,,,0.00,Weather View 32 v70,2013-06-05 21:27:00,
2013-06-05 17:32:00,77.0,52.1,29.28,ESE,112,0.0,12.0,42,0.00,,,0.00,Weather View 32 v70,2013-06-05 21:32:00,
2013-06-05 17:37:00,77.0,52.7,29.28,SSE,157,0.0,12.0,43,0.00,,,0.00,Weather View 32 v70,2013-06-05 21:37:00,
2013-06-05 17:42:00,77.0,54.0,29.28,SE,135,0.0,10.0,45,0.00,,,0.00,Weather View 32 v70,2013-06-05 21:42:00,
2013-06-05 17:47:00,78.0,53.6,29.28,SSW,202,0.0,9.0,43,0.00,,,0.00,Weather View 32 v70,2013-06-05 21:47:00,
2013-06-05 17:52:00,77.0,52.1,29.32,South,180,0.0,9.0,42,0.00,,,0.00,Weather View 32 v70,2013-06-05 21:52:00,
2013-06-05 17:57:00,77.0,52.7,29.28,SSE,157,7.0,9.0,43,0.00,,,0.00,Weather View 32 v70,2013-06-05 21:57:00,
2013-06-05 18:02:00,77.0,52.7,29.28,SE,135,3.0,9.0,43,0.00,,,0.00,Weather View 32 v70,2013-06-05 22:02:00,
2013-06-05 18:07:00,76.0,51.8,29.28,SW,225,0.0,9.0,43,0.00,,,0.00,Weather View 32 v70,2013-06-05 22:07:00,
2013-06-05 18:12:00,76.0,52.4,29.28,SSE,157,2.0,9.0,44,0.00,,,0.00,Weather View 32 v70,2013-06-05 22:12:00,
2013-06-05 18:17:00,76.0,53.1,29.28,South,180,0.0,9.0,45,0.00,,,0.00,Weather View 32 v70,2013-06-05 22:17:00,
2013-06-05 18:22:00,76.0,53.1,29.28,ESE,112,0.0,9.0,45,0.00,,,0.00,Weather View 32 v70,2013-06-05 22:22:00,
2013-06-05 18:27:00,77.0,52.7,29.27,SE,135,0.0,9.0,43,0.00,,,0.00,Weather View 32 v70,2013-06-05 22:27:00,
2013-06-05 18:32:00,77.0,52.7,29.28,SW,225,0.0,9.0,43,0.00,,,0.00,Weather View 32 v70,2013-06-05 22:32:00,
2013-06-05 18:37:00,76.0,51.8,29.28,ESE,112,0.0,9.0,43,0.00,,,0.00,Weather View 32 v70,2013-06-05 22:37:00,
2013-06-05 18:42:00,76.0,53.1,29.27,North,360,0.0,9.0,45,0.00,,,0.00,Weather View 32 v70,2013-06-05 22:42:00,
2013-06-05 18:47:00,76.0,52.4,29.27,SE,135,4.0,9.0,44,0.00,,,0.00,Weather View 32 v70,2013-06-05 22:47:00,
2013-06-05 18:52:00,76.0,51.8,29.27,NNE,22,0.0,9.0,43,0.00,,,0.00,Weather View 32 v70,2013-06-05 22:52:00,
2013-06-05 18:57:00,76.0,52.4,29.26,SE,135,0.0,9.0,44,0.00,,,0.00,Weather View 32 v70,2013-06-05 22:57:00,
2013-06-05 19:02:00,76.0,51.8,29.26,SSE,157,0.0,9.0,43,0.00,,,0.00,Weather View 32 v70,2013-06-05 23:02:00,
2013-06-05 19:07:00,76.0,51.2,29.27,East,90,0.0,9.0,42,0.00,,,0.00,Weather View 32 v70,2013-06-05 23:07:00,
2013-06-05 19:12:00,77.0,52.1,29.26,East,90,0.0,9.0,42,0.00,,,0.00,Weather View 32 v70,2013-06-05 23:12:00,
2013-06-05 19:17:00,76.0,50.5,29.27,SE,135,1.0,10.0,41,0.00,,,0.00,Weather View 32 v70,2013-06-05 23:17:00,
2013-06-05 19:22:00,76.0,50.5,29.27,SE,135,2.0,10.0,41,0.00,,,0.00,Weather View 32 v70,2013-06-05 23:22:00,
2013-06-05 19:27:00,76.0,50.5,29.26,South,180,0.0,10.0,41,0.00,,,0.00,Weather View 32 v70,2013-06-05 23:27:00,
2013-06-05 19:32:00,76.0,51.2,29.26,SSW,202,1.0,10.0,42,0.00,,,0.00,Weather View 32 v70,2013-06-05 23:32:00,
2013-06-05 19:37:00,75.0,50.9,29.26,NE,45,0.0,10.0,43,0.00,,,0.00,Weather View 32 v70,2013-06-05 23:37:00,
2013-06-05 19:42:00,75.0,51.5,29.26,SSE,157,0.0,10.0,44,0.00,,,0.00,Weather View 32 v70,2013-06-05 23:42:00,
2013-06-05 19:47:00,74.0,50.0,29.29,SE,135,0.0,10.0,43,0.00,,,0.00,Weather View 32 v70,2013-06-05 23:47:00,
2013-06-05 19:52:00,74.0,50.6,29.26,SE,135,0.0,10.0,44,0.00,,,0.00,Weather View 32 v70,2013-06-05 23:52:00,
2013-06-05 19:57:00,74.0,51.2,29.26,SSE,157,0.0,10.0,45,0.00,,,0.00,Weather View 32 v70,2013-06-05 23:57:00,
2013-06-05 20:02:00,73.0,50.3,29.26,SE,135,2.0,10.0,45,0.00,,,0.00,Weather View 32 v70,2013-06-06 00:02:00,
2013-06-05 20:07:00,73.0,50.3,29.26,East,90,0.0,10.0,45,0.00,,,0.00,Weather View 32 v70,2013-06-06 00:07:00,
2013-06-05 20:12:00,73.0,50.3,29.26,NE,45,2.0,10.0,45,0.00,,,0.00,Weather View 32 v70,2013-06-06 00:12:00,
2013-06-05 20:17:00,72.0,49.4,29.26,SE,135,0.0,9.0,45,0.00,,,0.00,Weather View 32 v70,2013-06-06 00:17:00,
2013-06-05 20:22:00,72.0,50.0,29.25,ESE,112,0.0,9.0,46,0.00,,,0.00,Weather View 32 v70,2013-06-06 00:22:00,
2013-06-05 20:27:00,72.0,50.0,29.25,ESE,112,4.0,12.0,46,0.00,,,0.00,Weather View 32 v70,2013-06-06 00:27:00,
2013-06-05 20:32:00,72.0,50.0,29.25,ESE,112,0.0,12.0,46,0.00,,,0.00,Weather View 32 v70,2013-06-06 00:32:00,
2013-06-05 20:37:00,72.0,50.6,29.25,SE,135,4.0,12.0,47,0.00,,,0.00,Weather View 32 v70,2013-06-06 00:37:00,
2013-06-05 20:42:00,72.0,51.2,29.25,SE,135,0.0,12.0,48,0.00,,,0.00,Weather View 32 v70,2013-06-06 00:42:00,
2013-06-05 20:47:00,71.0,50.3,29.25,East,90,2.0,12.0,48,0.00,,,0.00,Weather View 32 v70,2013-06-06 00:47:00,
2013-06-05 20:52:00,71.0,50.3,29.25,SSE,157,2.0,12.0,48,0.00,,,0.00,Weather View 32 v70,2013-06-06 00:52:00,
2013-06-05 20:57:00,71.0,50.3,29.25,ESE,112,0.0,12.0,48,0.00,,,0.00,Weather View 32 v70,2013-06-06 00:57:00,
2013-06-05 21:02:00,71.0,50.3,29.25,SE,135,5.0,12.0,48,0.00,,,0.00,Weather View 32 v70,2013-06-06 01:02:00,
2013-06-05 21:07:00,71.0,50.3,29.25,SSE,157,3.0,12.0,48,0.00,,,0.00,Weather View 32 v70,2013-06-06 01:07:00,
2013-06-05 21:12:00,71.0,50.3,29.25,South,180,0.0,12.0,48,0.00,,,0.00,Weather View 32 v70,2013-06-06 01:12:00,
2013-06-05 21:17:00,71.0,50.8,29.25,ESE,112,2.0,12.0,49,0.00,,,0.00,Weather View 32 v70,2013-06-06 01:17:00,
2013-06-05 21:22:00,71.0,51.4,29.25,SSE,157,0.0,12.0,50,0.00,,,0.00,Weather View 32 v70,2013-06-06 01:22:00,
2013-06-05 21:27:00,70.0,50.5,29.25,East,90,3.0,9.0,50,0.00,,,0.00,Weather View 32 v70,2013-06-06 01:27:00,
2013-06-05 21:32:00,70.0,51.0,29.25,SSE,157,4.0,9.0,51,0.00,,,0.00,Weather View 32 v70,2013-06-06 01:32:00,
2013-06-05 21:37:00,70.0,51.0,29.26,SE,135,0.0,9.0,51,0.00,,,0.00,Weather View 32 v70,2013-06-06 01:37:00,
2013-06-05 21:42:00,70.0,52.0,29.26,ESE,112,0.0,9.0,53,0.00,,,0.00,Weather View 32 v70,2013-06-06 01:42:00,
2013-06-05 21:47:00,69.0,51.1,29.26,SSE,157,0.0,9.0,53,0.00,,,0.00,Weather View 32 v70,2013-06-06 01:47:00,
2013-06-05 21:52:00,70.0,52.0,29.26,SE,135,5.0,9.0,53,0.00,,,0.00,Weather View 32 v70,2013-06-06 01:52:00,
2013-06-05 21:57:00,70.0,52.0,29.26,SSE,157,2.0,9.0,53,0.00,,,0.00,Weather View 32 v70,2013-06-06 01:57:00,
2013-06-05 22:02:00,69.0,51.6,29.26,SE,135,4.0,9.0,54,0.00,,,0.00,Weather View 32 v70,2013-06-06 02:02:00,
2013-06-05 22:07:00,69.0,52.1,29.28,ENE,67,0.0,9.0,55,0.00,,,0.00,Weather View 32 v70,2013-06-06 02:07:00,
2013-06-05 22:12:00,69.0,52.1,29.26,ESE,112,0.0,9.0,55,0.00,,,0.00,Weather View 32 v70,2013-06-06 02:12:00,
2013-06-05 22:17:00,69.0,52.1,29.26,SE,135,0.0,9.0,55,0.00,,,0.00,Weather View 32 v70,2013-06-06 02:17:00,
2013-06-05 22:22:00,69.0,52.1,29.26,SE,135,7.0,9.0,55,0.00,,,0.00,Weather View 32 v70,2013-06-06 02:22:00,
2013-06-05 22:27:00,69.0,52.1,29.26,ESE,112,0.0,9.0,55,0.00,,,0.00,Weather View 32 v70,2013-06-06 02:27:00,
2013-06-05 22:32:00,68.0,51.2,29.26,East,90,1.0,9.0,55,0.00,,,0.00,Weather View 32 v70,2013-06-06 02:32:00,
2013-06-05 22:37:00,68.0,51.7,29.26,SE,135,0.0,9.0,56,0.00,,,0.00,Weather View 32 v70,2013-06-06 02:37:00,
2013-06-05 22:42:00,68.0,51.7,29.26,ESE,112,1.0,9.0,56,0.00,,,0.00,Weather View 32 v70,2013-06-06 02:42:00,
2013-06-05 22:47:00,68.0,52.2,29.26,SE,135,0.0,9.0,57,0.00,,,0.00,Weather View 32 v70,2013-06-06 02:47:00,
2013-06-05 22:52:00,68.0,52.6,29.26,South,180,0.0,9.0,58,0.00,,,0.00,Weather View 32 v70,2013-06-06 02:52:00,
2013-06-05 22:57:00,68.0,52.6,29.26,SE,135,0.0,9.0,58,0.00,,,0.00,Weather View 32 v70,2013-06-06 02:57:00,
2013-06-05 23:02:00,67.0,51.2,29.27,SW,225,6.0,8.0,57,0.00,,,0.00,Weather View 32 v70,2013-06-06 03:02:00,
2013-06-05 23:07:00,67.0,51.2,29.27,WSW,247,0.0,8.0,57,0.00,,,0.00,Weather View 32 v70,2013-06-06 03:07:00,
2013-06-05 23:12:00,67.0,51.2,29.27,South,180,0.0,8.0,57,0.00,,,0.00,Weather View 32 v70,2013-06-06 03:12:00,
2013-06-05 23:17:00,67.0,51.2,29.27,NNW,337,0.0,8.0,57,0.00,,,0.00,Weather View 32 v70,2013-06-06 03:17:00,
2013-06-05 23:22:00,67.0,51.2,29.27,SE,135,0.0,8.0,57,0.00,,,0.00,Weather View 32 v70,2013-06-06 03:22:00,
2013-06-05 23:27:00,67.0,51.2,29.27,SSE,157,0.0,8.0,57,0.00,,,0.00,Weather View 32 v70,2013-06-06 03:27:00,
2013-06-05 23:32:00,67.0,51.2,29.27,South,180,0.0,8.0,57,0.00,,,0.00,Weather View 32 v70,2013-06-06 03:32:00,
2013-06-05 23:37:00,66.0,50.3,29.27,SE,135,0.0,7.0,57,0.00,,,0.00,Weather View 32 v70,2013-06-06 03:37:00,
2013-06-05 23:42:00,66.0,50.3,29.27,SSW,202,0.0,7.0,57,0.00,,,0.00,Weather View 32 v70,2013-06-06 03:42:00,
2013-06-05 23:47:00,66.0,50.3,29.27,East,90,0.0,7.0,57,0.00,,,0.00,Weather View 32 v70,2013-06-06 03:47:00,
2013-06-05 23:52:00,66.0,50.3,29.28,SE,135,0.0,7.0,57,0.00,,,0.00,Weather View 32 v70,2013-06-06 03:52:00,
2013-06-05 23:57:00,66.0,50.8,29.27,SE,135,0.0,7.0,58,0.00,,,0.00,Weather View 32 v70,2013-06-06 03:57:00,